Terminal Aerodrome Forecast
Issued by NWS Charleston, WV

Current Version | Previous Version | Text Only | Print | Product List | Glossary Off
Versions: 1 2 3 4 5 6 7 8 9 10 11 12 13 14 15 16 17 18 19 20 21 22 23 24 25

000
FTUS41 KRLX 291400 AAA
TAFCRW
TAF AMD
KCRW 291420Z 2914/3012 VRB03KT P6SM SCT050
     FM300300 14006KT P6SM SCT150
     FM300700 16005KT P6SM BKN090=

USA.gov is the U.S. government's official web portal to all federal, state and local government web resources and services.